PWSweather.com
Personal Weather Stations
Station Observations
PICKERING
North Yorkshire, PickeringGB

North YorkshirePickeringGB

Lat: 54.2494, Lon: -0.7725

Elevation: 192

Station Type: Oregon Scientific WMR100

http://www.yorkshirewalker.co.uk/weather/

High Low Average
Temperature 43.0°F6.1°C 37.8°F3.2°C 41.2°F5.1°C
Dew Point 41.0°F5.0°C 33.8°F1.0°C 38.1°F3.4°C
Winds 5.6 mph 9.0 kmh Calm Calm 1.0 mph ESE1.6 kmh ESE
Wind Gusts 10.5 mph16.9 kmh -- 2.0 mph3.2 kmh
Humidity 90% 85% 88%
Pressure 29.86 in1011.2 mb 29.59 in1002.0 mb -
Precipitation 0.22 in5.6 mm - -
Hour Temp Dew Point Humidity Winds Wind Gusts Pressure Precip Precip Rate Daily Precip Total
12:00 AM 37.8°F3.2°C 33.8°F1.0°C 85% 0.1 mph ESE0.2 kmh ESE 0.9 mph1.4 kmh 29.62 in1003.0 mb 0.00 in0.0 mm 0.00 in0.0 mm 0.00 in0.0 mm
12:05 AM 37.9°F3.3°C 33.8°F1.0°C 85% 0.3 mph E0.5 kmh E 1.3 mph2.1 kmh 29.62 in1003.0 mb 0.00 in0.0 mm 0.00 in0.0 mm 0.00 in0.0 mm
12:10 AM 37.9°F3.3°C 33.8°F1.0°C 85% 0.7 mph SE1.1 kmh SE 2.7 mph4.3 kmh 29.62 in1003.0 mb 0.00 in0.0 mm 0.00 in0.0 mm 0.00 in0.0 mm
12:15 AM 37.9°F3.3°C 33.8°F1.0°C 85% 0.7 mph SE1.1 kmh SE 2.9 mph4.7 kmh 29.62 in1003.0 mb 0.00 in0.0 mm 0.00 in0.0 mm 0.00 in0.0 mm
12:20 AM 38.1°F3.4°C 33.8°F1.0°C 85% 0.8 mph SE1.3 kmh SE 2.9 mph4.7 kmh 29.62 in1003.0 mb 0.00 in0.0 mm 0.00 in0.0 mm 0.00 in0.0 mm
12:25 AM 38.1°F3.4°C 33.8°F1.0°C 85% 1.1 mph E1.8 kmh E 3.6 mph5.8 kmh 29.62 in1003.0 mb 0.00 in0.0 mm 0.00 in0.0 mm 0.00 in0.0 mm
12:30 AM 38.1°F3.4°C 33.8°F1.0°C 85% 1.0 mph E1.6 kmh E 3.6 mph5.8 kmh 29.62 in1003.0 mb 0.00 in0.0 mm 0.00 in0.0 mm 0.00 in0.0 mm
12:35 AM 38.3°F3.5°C 33.8°F1.0°C 85% 1.0 mph SE1.6 kmh SE 2.7 mph4.3 kmh 29.62 in1003.0 mb 0.00 in0.0 mm 0.00 in0.0 mm 0.00 in0.0 mm
12:40 AM 38.3°F3.5°C 33.8°F1.0°C 85% 2.1 mph SE3.4 kmh SE 4.9 mph7.9 kmh 29.62 in1003.0 mb 0.00 in0.0 mm 0.00 in0.0 mm 0.00 in0.0 mm
12:45 AM 38.5°F3.6°C 33.8°F1.0°C 85% 2.1 mph SE3.4 kmh SE 4.9 mph7.9 kmh 29.62 in1003.0 mb 0.00 in0.0 mm 0.00 in0.0 mm 0.00 in0.0 mm
12:50 AM 38.5°F3.6°C 33.8°F1.0°C 85% 1.7 mph ESE2.7 kmh ESE 4.9 mph7.9 kmh 29.62 in1003.0 mb 0.00 in0.0 mm 0.00 in0.0 mm 0.00 in0.0 mm
12:55 AM 38.5°F3.6°C 33.8°F1.0°C 85% 1.6 mph ESE2.6 kmh ESE 3.8 mph6.1 kmh 29.62 in1003.0 mb 0.00 in0.0 mm 0.00 in0.0 mm 0.00 in0.0 mm
01:00 AM 38.7°F3.7°C 35.6°F2.0°C 85% 1.0 mph SE1.6 kmh SE 2.9 mph4.7 kmh 29.62 in1003.0 mb 0.00 in0.0 mm 0.00 in0.0 mm 0.00 in0.0 mm
01:05 AM 38.7°F3.7°C 35.6°F2.0°C 85% 1.4 mph SE2.3 kmh SE 3.1 mph5.0 kmh 29.62 in1003.0 mb 0.00 in0.0 mm 0.00 in0.0 mm 0.00 in0.0 mm
01:10 AM 38.7°F3.7°C 35.6°F2.0°C 85% 1.6 mph SE2.6 kmh SE 3.1 mph5.0 kmh 29.62 in1003.0 mb 0.00 in0.0 mm 0.00 in0.0 mm 0.00 in0.0 mm
01:15 AM 38.8°F3.8°C 35.6°F2.0°C 85% 1.6 mph ESE2.6 kmh ESE 4.7 mph7.6 kmh 29.62 in1003.0 mb 0.00 in0.0 mm 0.00 in0.0 mm 0.00 in0.0 mm
01:20 AM 38.8°F3.8°C 35.6°F2.0°C 85% 1.7 mph E2.7 kmh E 4.7 mph7.6 kmh 29.62 in1003.0 mb 0.00 in0.0 mm 0.00 in0.0 mm 0.00 in0.0 mm
01:25 AM 38.8°F3.8°C 35.6°F2.0°C 85% 1.3 mph ESE2.1 kmh ESE 3.8 mph6.1 kmh 29.62 in1003.0 mb 0.00 in0.0 mm 0.00 in0.0 mm 0.00 in0.0 mm
01:30 AM 38.8°F3.8°C 35.6°F2.0°C 85% 1.2 mph SE1.9 kmh SE 3.8 mph6.1 kmh 29.62 in1003.0 mb 0.00 in0.0 mm 0.00 in0.0 mm 0.00 in0.0 mm
01:35 AM 38.8°F3.8°C 35.6°F2.0°C 85% 1.1 mph ESE1.8 kmh ESE 2.7 mph4.3 kmh 29.62 in1003.0 mb 0.00 in0.0 mm 0.00 in0.0 mm 0.00 in0.0 mm
01:40 AM 39.0°F3.9°C 35.6°F2.0°C 85% 0.6 mph ESE1.0 kmh ESE 2.0 mph3.2 kmh 29.62 in1003.0 mb 0.00 in0.0 mm 0.00 in0.0 mm 0.00 in0.0 mm
01:45 AM 39.0°F3.9°C 35.6°F2.0°C 85% 1.0 mph E1.6 kmh E 2.2 mph3.5 kmh 29.62 in1003.0 mb 0.00 in0.0 mm 0.00 in0.0 mm 0.00 in0.0 mm
01:50 AM 39.0°F3.9°C 35.6°F2.0°C 85% 1.1 mph E1.8 kmh E 2.2 mph3.5 kmh 29.62 in1003.0 mb 0.00 in0.0 mm 0.00 in0.0 mm 0.00 in0.0 mm
01:55 AM 39.0°F3.9°C 35.6°F2.0°C 85% 1.0 mph ESE1.6 kmh ESE 3.8 mph6.1 kmh 29.62 in1003.0 mb 0.00 in0.0 mm 0.00 in0.0 mm 0.00 in0.0 mm
02:00 AM 39.0°F3.9°C 35.6°F2.0°C 85% 1.5 mph SE2.4 kmh SE 3.8 mph6.1 kmh 29.62 in1003.0 mb 0.00 in0.0 mm 0.00 in0.0 mm 0.00 in0.0 mm
02:05 AM 39.0°F3.9°C 35.6°F2.0°C 85% 1.9 mph ESE3.1 kmh ESE 3.6 mph5.8 kmh 29.62 in1003.0 mb 0.00 in0.0 mm 0.00 in0.0 mm 0.00 in0.0 mm
02:10 AM 39.0°F3.9°C 35.6°F2.0°C 85% 1.6 mph E2.6 kmh E 3.8 mph6.1 kmh 29.62 in1003.0 mb 0.00 in0.0 mm 0.00 in0.0 mm 0.00 in0.0 mm
02:15 AM 39.0°F3.9°C 35.6°F2.0°C 85% 1.5 mph ESE2.4 kmh ESE 4.9 mph7.9 kmh 29.62 in1003.0 mb 0.00 in0.0 mm 0.00 in0.0 mm 0.00 in0.0 mm
02:20 AM 39.0°F3.9°C 35.6°F2.0°C 85% 1.9 mph SE3.1 kmh SE 4.9 mph7.9 kmh 29.62 in1003.0 mb 0.00 in0.0 mm 0.00 in0.0 mm 0.00 in0.0 mm
02:25 AM 39.2°F4.0°C 35.6°F2.0°C 85% 1.6 mph ESE2.6 kmh ESE 3.8 mph6.1 kmh 29.62 in1003.0 mb 0.00 in0.0 mm 0.00 in0.0 mm 0.00 in0.0 mm
02:30 AM 39.2°F4.0°C 35.6°F2.0°C 85% 1.2 mph ESE1.9 kmh ESE 3.8 mph6.1 kmh 29.62 in1003.0 mb 0.00 in0.0 mm 0.00 in0.0 mm 0.00 in0.0 mm
02:35 AM 39.2°F4.0°C 35.6°F2.0°C 86% 1.4 mph SE2.3 kmh SE 3.4 mph5.5 kmh 29.62 in1003.0 mb 0.00 in0.0 mm 0.00 in0.0 mm 0.00 in0.0 mm
02:40 AM 39.2°F4.0°C 35.6°F2.0°C 86% 1.8 mph E2.9 kmh E 4.0 mph6.4 kmh 29.62 in1003.0 mb 0.00 in0.0 mm 0.00 in0.0 mm 0.00 in0.0 mm
02:45 AM 39.4°F4.1°C 35.6°F2.0°C 86% 1.6 mph E2.6 kmh E 4.0 mph6.4 kmh 29.62 in1003.0 mb 0.00 in0.0 mm 0.00 in0.0 mm 0.00 in0.0 mm
02:50 AM 39.4°F4.1°C 35.6°F2.0°C 86% 0.8 mph ESE1.3 kmh ESE 4.0 mph6.4 kmh 29.62 in1003.0 mb 0.00 in0.0 mm 0.00 in0.0 mm 0.00 in0.0 mm
02:55 AM 39.6°F4.2°C 35.6°F2.0°C 86% 0.9 mph ESE1.4 kmh ESE 3.4 mph5.5 kmh 29.62 in1003.0 mb 0.00 in0.0 mm 0.00 in0.0 mm 0.00 in0.0 mm
03:00 AM 39.6°F4.2°C 35.6°F2.0°C 86% 1.1 mph SE1.8 kmh SE 3.4 mph5.5 kmh 29.62 in1003.0 mb 0.00 in0.0 mm 0.00 in0.0 mm 0.00 in0.0 mm
03:05 AM 39.6°F4.2°C 35.6°F2.0°C 86% 0.5 mph SE0.8 kmh SE 2.2 mph3.5 kmh 29.62 in1003.0 mb 0.00 in0.0 mm 0.00 in0.0 mm 0.00 in0.0 mm
03:10 AM 39.6°F4.2°C 35.6°F2.0°C 86% 0.7 mph SE1.1 kmh SE 2.5 mph4.0 kmh 29.62 in1003.0 mb 0.00 in0.0 mm 0.00 in0.0 mm 0.00 in0.0 mm
03:15 AM 39.6°F4.2°C 35.6°F2.0°C 86% 1.3 mph SE2.1 kmh SE 2.7 mph4.3 kmh 29.62 in1003.0 mb 0.00 in0.0 mm 0.00 in0.0 mm 0.00 in0.0 mm
03:20 AM 39.6°F4.2°C 35.6°F2.0°C 86% 1.3 mph E2.1 kmh E 2.7 mph4.3 kmh 29.62 in1003.0 mb 0.00 in0.0 mm 0.00 in0.0 mm 0.00 in0.0 mm
03:25 AM 39.6°F4.2°C 35.6°F2.0°C 86% 1.3 mph E2.1 kmh E 2.5 mph4.0 kmh 29.62 in1003.0 mb 0.00 in0.0 mm 0.00 in0.0 mm 0.00 in0.0 mm
03:30 AM 39.6°F4.2°C 35.6°F2.0°C 86% 1.7 mph E2.7 kmh E 2.7 mph4.3 kmh 29.62 in1003.0 mb 0.00 in0.0 mm 0.00 in0.0 mm 0.00 in0.0 mm
03:35 AM 39.6°F4.2°C 35.6°F2.0°C 86% 1.4 mph E2.3 kmh E 2.9 mph4.7 kmh 29.62 in1003.0 mb 0.00 in0.0 mm 0.00 in0.0 mm 0.00 in0.0 mm
03:40 AM 39.6°F4.2°C 35.6°F2.0°C 86% 1.1 mph E1.8 kmh E 2.9 mph4.7 kmh 29.62 in1003.0 mb 0.00 in0.0 mm 0.00 in0.0 mm 0.00 in0.0 mm
03:45 AM 39.6°F4.2°C 35.6°F2.0°C 86% 1.2 mph E1.9 kmh E 1.6 mph2.6 kmh 29.62 in1003.0 mb 0.00 in0.0 mm 0.00 in0.0 mm 0.00 in0.0 mm
03:50 AM 39.6°F4.2°C 35.6°F2.0°C 86% 1.6 mph E2.6 kmh E 2.7 mph4.3 kmh 29.62 in1003.0 mb 0.00 in0.0 mm 0.00 in0.0 mm 0.00 in0.0 mm
03:55 AM 39.6°F4.2°C 35.6°F2.0°C 86% 1.7 mph E2.7 kmh E 2.7 mph4.3 kmh 29.62 in1003.0 mb 0.00 in0.0 mm 0.00 in0.0 mm 0.00 in0.0 mm
04:00 AM 39.6°F4.2°C 35.6°F2.0°C 86% 1.2 mph E1.9 kmh E 2.7 mph4.3 kmh 29.62 in1003.0 mb 0.00 in0.0 mm 0.00 in0.0 mm 0.00 in0.0 mm
04:05 AM 39.6°F4.2°C 35.6°F2.0°C 86% 1.0 mph E1.6 kmh E 2.9 mph4.7 kmh 29.59 in1002.0 mb 0.00 in0.0 mm 0.00 in0.0 mm 0.00 in0.0 mm
04:10 AM 39.6°F4.2°C 35.6°F2.0°C 86% 1.4 mph E2.3 kmh E 2.9 mph4.7 kmh 29.59 in1002.0 mb 0.00 in0.0 mm 0.00 in0.0 mm 0.00 in0.0 mm
04:15 AM 39.7°F4.3°C 35.6°F2.0°C 87% 1.2 mph E1.9 kmh E 2.2 mph3.5 kmh 29.59 in1002.0 mb 0.00 in0.0 mm 0.00 in0.0 mm 0.00 in0.0 mm
04:20 AM 39.7°F4.3°C 35.6°F2.0°C 87% 0.9 mph E1.4 kmh E 1.6 mph2.6 kmh 29.59 in1002.0 mb 0.00 in0.0 mm 0.00 in0.0 mm 0.00 in0.0 mm
04:25 AM 39.7°F4.3°C 35.6°F2.0°C 87% 0.5 mph ENE0.8 kmh ENE 1.6 mph2.6 kmh 29.59 in1002.0 mb 0.00 in0.0 mm 0.00 in0.0 mm 0.00 in0.0 mm
04:30 AM 39.7°F4.3°C 35.6°F2.0°C 87% 0.1 mph NE0.2 kmh NE 0.9 mph1.4 kmh 29.59 in1002.0 mb 0.00 in0.0 mm 0.00 in0.0 mm 0.00 in0.0 mm
04:35 AM 39.7°F4.3°C 35.6°F2.0°C 87% Calm Calm -- 29.62 in1003.0 mb 0.06 in1.5 mm 0.72 in18.3 mm 0.06 in1.5 mm
04:40 AM 39.7°F4.3°C 35.6°F2.0°C 87% 0.4 mph E0.6 kmh E 1.1 mph1.8 kmh 29.62 in1003.0 mb 0.06 in1.5 mm 0.00 in0.0 mm 0.06 in1.5 mm
04:45 AM 39.7°F4.3°C 35.6°F2.0°C 87% 0.5 mph E0.8 kmh E 1.1 mph1.8 kmh 29.62 in1003.0 mb 0.06 in1.5 mm 0.00 in0.0 mm 0.06 in1.5 mm
04:50 AM 39.7°F4.3°C 35.6°F2.0°C 87% 0.1 mph E0.2 kmh E 0.9 mph1.4 kmh 29.62 in1003.0 mb 0.06 in1.5 mm 0.00 in0.0 mm 0.06 in1.5 mm
04:55 AM 39.7°F4.3°C 35.6°F2.0°C 87% Calm Calm -- 29.62 in1003.0 mb 0.06 in1.5 mm 0.00 in0.0 mm 0.06 in1.5 mm
05:00 AM 39.7°F4.3°C 35.6°F2.0°C 87% Calm Calm -- 29.62 in1003.0 mb 0.06 in1.5 mm 0.00 in0.0 mm 0.06 in1.5 mm
05:05 AM 39.7°F4.3°C 35.6°F2.0°C 87% Calm Calm -- 29.62 in1003.0 mb 0.06 in1.5 mm 0.00 in0.0 mm 0.06 in1.5 mm
05:10 AM 39.7°F4.3°C 35.6°F2.0°C 87% 0.2 mph E0.3 kmh E 0.9 mph1.4 kmh 29.62 in1003.0 mb 0.06 in1.5 mm 0.00 in0.0 mm 0.06 in1.5 mm
05:15 AM 39.7°F4.3°C 35.6°F2.0°C 87% 0.6 mph E1.0 kmh E 1.1 mph1.8 kmh 29.62 in1003.0 mb 0.06 in1.5 mm 0.00 in0.0 mm 0.06 in1.5 mm
05:20 AM 39.7°F4.3°C 35.6°F2.0°C 87% 0.9 mph ENE1.4 kmh ENE 2.0 mph3.2 kmh 29.62 in1003.0 mb 0.06 in1.5 mm 0.00 in0.0 mm 0.06 in1.5 mm
05:25 AM 39.7°F4.3°C 35.6°F2.0°C 87% 0.6 mph ENE1.0 kmh ENE 2.0 mph3.2 kmh 29.62 in1003.0 mb 0.06 in1.5 mm 0.00 in0.0 mm 0.06 in1.5 mm
05:30 AM 39.7°F4.3°C 35.6°F2.0°C 87% 0.1 mph NE0.2 kmh NE 0.9 mph1.4 kmh 29.62 in1003.0 mb 0.06 in1.5 mm 0.00 in0.0 mm 0.06 in1.5 mm
05:35 AM 39.7°F4.3°C 35.6°F2.0°C 87% 0.2 mph NE0.3 kmh NE 0.9 mph1.4 kmh 29.62 in1003.0 mb 0.00 in0.0 mm 0.00 in0.0 mm 0.06 in1.5 mm
05:40 AM 39.7°F4.3°C 35.6°F2.0°C 87% 0.6 mph NE1.0 kmh NE 1.1 mph1.8 kmh 29.62 in1003.0 mb 0.00 in0.0 mm 0.00 in0.0 mm 0.06 in1.5 mm
05:45 AM 39.7°F4.3°C 35.6°F2.0°C 87% 0.8 mph NE1.3 kmh NE 1.1 mph1.8 kmh 29.62 in1003.0 mb 0.06 in1.5 mm 0.72 in18.3 mm 0.11 in2.8 mm
05:50 AM 39.7°F4.3°C 35.6°F2.0°C 87% 1.0 mph NE1.6 kmh NE 1.6 mph2.6 kmh 29.62 in1003.0 mb 0.06 in1.5 mm 0.00 in0.0 mm 0.11 in2.8 mm
05:55 AM 39.9°F4.4°C 37.4°F3.0°C 88% 1.0 mph NE1.6 kmh NE 1.6 mph2.6 kmh 29.62 in1003.0 mb 0.06 in1.5 mm 0.00 in0.0 mm 0.11 in2.8 mm
06:00 AM 39.9°F4.4°C 37.4°F3.0°C 88% 0.6 mph ENE1.0 kmh ENE 1.1 mph1.8 kmh 29.62 in1003.0 mb 0.06 in1.5 mm 0.00 in0.0 mm 0.11 in2.8 mm
06:05 AM 39.9°F4.4°C 37.4°F3.0°C 88% 0.3 mph NE0.5 kmh NE 1.1 mph1.8 kmh 29.62 in1003.0 mb 0.06 in1.5 mm 0.00 in0.0 mm 0.11 in2.8 mm
06:10 AM 39.9°F4.4°C 37.4°F3.0°C 88% 0.5 mph E0.8 kmh E 1.1 mph1.8 kmh 29.62 in1003.0 mb 0.06 in1.5 mm 0.00 in0.0 mm 0.11 in2.8 mm
06:15 AM 39.9°F4.4°C 37.4°F3.0°C 88% 0.9 mph E1.4 kmh E 1.1 mph1.8 kmh 29.62 in1003.0 mb 0.06 in1.5 mm 0.00 in0.0 mm 0.11 in2.8 mm
06:20 AM 39.9°F4.4°C 37.4°F3.0°C 88% 0.8 mph E1.3 kmh E 1.3 mph2.1 kmh 29.62 in1003.0 mb 0.06 in1.5 mm 0.00 in0.0 mm 0.11 in2.8 mm
06:25 AM 39.9°F4.4°C 37.4°F3.0°C 88% 0.4 mph E0.6 kmh E 1.3 mph2.1 kmh 29.62 in1003.0 mb 0.06 in1.5 mm 0.00 in0.0 mm 0.11 in2.8 mm
06:30 AM 39.9°F4.4°C 37.4°F3.0°C 88% 0.1 mph E0.2 kmh E 0.9 mph1.4 kmh 29.62 in1003.0 mb 0.06 in1.5 mm 0.00 in0.0 mm 0.11 in2.8 mm
06:35 AM 39.9°F4.4°C 37.4°F3.0°C 88% 0.1 mph E0.2 kmh E 0.9 mph1.4 kmh 29.62 in1003.0 mb 0.06 in1.5 mm 0.00 in0.0 mm 0.11 in2.8 mm
06:40 AM 40.1°F4.5°C 37.4°F3.0°C 88% 0.1 mph E0.2 kmh E 0.9 mph1.4 kmh 29.62 in1003.0 mb 0.13 in3.3 mm 0.84 in21.3 mm 0.18 in4.6 mm
06:45 AM 40.1°F4.5°C 37.4°F3.0°C 88% 0.1 mph E0.2 kmh E 0.9 mph1.4 kmh 29.62 in1003.0 mb 0.07 in1.8 mm 0.00 in0.0 mm 0.18 in4.6 mm
06:50 AM 40.1°F4.5°C 37.4°F3.0°C 88% 0.1 mph ENE0.2 kmh ENE 0.9 mph1.4 kmh 29.62 in1003.0 mb 0.07 in1.8 mm 0.00 in0.0 mm 0.18 in4.6 mm
06:55 AM 40.1°F4.5°C 37.4°F3.0°C 88% 0.1 mph ENE0.2 kmh ENE 0.9 mph1.4 kmh 29.62 in1003.0 mb 0.07 in1.8 mm 0.00 in0.0 mm 0.18 in4.6 mm
07:00 AM 40.1°F4.5°C 37.4°F3.0°C 88% Calm Calm -- 29.62 in1003.0 mb 0.07 in1.8 mm 0.00 in0.0 mm 0.18 in4.6 mm
07:05 AM 40.1°F4.5°C 37.4°F3.0°C 88% Calm Calm -- 29.62 in1003.0 mb 0.07 in1.8 mm 0.00 in0.0 mm 0.18 in4.6 mm
07:10 AM 40.1°F4.5°C 37.4°F3.0°C 88% Calm Calm -- 29.62 in1003.0 mb 0.07 in1.8 mm 0.00 in0.0 mm 0.18 in4.6 mm
07:15 AM 40.1°F4.5°C 37.4°F3.0°C 88% Calm Calm -- 29.62 in1003.0 mb 0.07 in1.8 mm 0.00 in0.0 mm 0.18 in4.6 mm
07:20 AM 40.1°F4.5°C 37.4°F3.0°C 88% Calm Calm -- 29.62 in1003.0 mb 0.07 in1.8 mm 0.00 in0.0 mm 0.18 in4.6 mm
07:25 AM 40.3°F4.6°C 37.4°F3.0°C 88% Calm Calm -- 29.62 in1003.0 mb 0.07 in1.8 mm 0.00 in0.0 mm 0.18 in4.6 mm
07:30 AM 40.1°F4.5°C 37.4°F3.0°C 88% Calm Calm -- 29.62 in1003.0 mb 0.07 in1.8 mm 0.00 in0.0 mm 0.18 in4.6 mm
07:35 AM 40.3°F4.6°C 37.4°F3.0°C 88% Calm Calm -- 29.62 in1003.0 mb 0.07 in1.8 mm 0.00 in0.0 mm 0.18 in4.6 mm
07:40 AM 40.1°F4.5°C 37.4°F3.0°C 88% Calm Calm -- 29.62 in1003.0 mb 0.00 in0.0 mm 0.00 in0.0 mm 0.18 in4.6 mm
07:45 AM 40.1°F4.5°C 37.4°F3.0°C 88% Calm Calm -- 29.62 in1003.0 mb 0.00 in0.0 mm 0.00 in0.0 mm 0.18 in4.6 mm
07:50 AM 40.1°F4.5°C 37.4°F3.0°C 88% Calm Calm -- 29.62 in1003.0 mb 0.00 in0.0 mm 0.00 in0.0 mm 0.18 in4.6 mm
07:55 AM 40.1°F4.5°C 37.4°F3.0°C 88% Calm Calm -- 29.62 in1003.0 mb 0.00 in0.0 mm 0.00 in0.0 mm 0.18 in4.6 mm
08:00 AM 40.1°F4.5°C 37.4°F3.0°C 88% Calm Calm -- 29.62 in1003.0 mb 0.00 in0.0 mm 0.00 in0.0 mm 0.18 in4.6 mm
08:05 AM 40.1°F4.5°C 37.4°F3.0°C 88% Calm Calm -- 29.62 in1003.0 mb 0.00 in0.0 mm 0.00 in0.0 mm 0.18 in4.6 mm
08:10 AM 40.1°F4.5°C 37.4°F3.0°C 88% Calm Calm -- 29.62 in1003.0 mb 0.00 in0.0 mm 0.00 in0.0 mm 0.18 in4.6 mm
08:15 AM 40.1°F4.5°C 37.4°F3.0°C 88% Calm Calm -- 29.62 in1003.0 mb 0.00 in0.0 mm 0.00 in0.0 mm 0.18 in4.6 mm
08:20 AM 40.1°F4.5°C 37.4°F3.0°C 88% Calm Calm -- 29.65 in1004.1 mb 0.00 in0.0 mm 0.00 in0.0 mm 0.18 in4.6 mm
08:25 AM 40.3°F4.6°C 37.4°F3.0°C 88% 0.1 mph NE0.2 kmh NE 0.9 mph1.4 kmh 29.65 in1004.1 mb 0.00 in0.0 mm 0.00 in0.0 mm 0.18 in4.6 mm
08:30 AM 40.3°F4.6°C 37.4°F3.0°C 88% 0.1 mph NE0.2 kmh NE 0.9 mph1.4 kmh 29.65 in1004.1 mb 0.00 in0.0 mm 0.00 in0.0 mm 0.18 in4.6 mm
08:35 AM 40.3°F4.6°C 37.4°F3.0°C 88% Calm Calm -- 29.65 in1004.1 mb 0.00 in0.0 mm 0.00 in0.0 mm 0.18 in4.6 mm
08:40 AM 40.3°F4.6°C 37.4°F3.0°C 88% 0.1 mph E0.2 kmh E 1.1 mph1.8 kmh 29.65 in1004.1 mb 0.00 in0.0 mm 0.00 in0.0 mm 0.18 in4.6 mm
08:45 AM 40.3°F4.6°C 37.4°F3.0°C 88% 0.1 mph E0.2 kmh E 1.1 mph1.8 kmh 29.65 in1004.1 mb 0.00 in0.0 mm 0.00 in0.0 mm 0.18 in4.6 mm
08:50 AM 40.5°F4.7°C 37.4°F3.0°C 88% 0.1 mph E0.2 kmh E 1.1 mph1.8 kmh 29.65 in1004.1 mb 0.00 in0.0 mm 0.00 in0.0 mm 0.18 in4.6 mm
08:55 AM 40.5°F4.7°C 37.4°F3.0°C 88% Calm Calm -- 29.65 in1004.1 mb 0.00 in0.0 mm 0.00 in0.0 mm 0.18 in4.6 mm
09:00 AM 40.5°F4.7°C 37.4°F3.0°C 89% Calm Calm -- 29.65 in1004.1 mb 0.00 in0.0 mm 0.00 in0.0 mm 0.18 in4.6 mm
09:05 AM 40.5°F4.7°C 37.4°F3.0°C 89% Calm Calm -- 29.65 in1004.1 mb 0.00 in0.0 mm 0.00 in0.0 mm 0.18 in4.6 mm
09:10 AM 40.5°F4.7°C 37.4°F3.0°C 89% Calm Calm -- 29.65 in1004.1 mb 0.00 in0.0 mm 0.00 in0.0 mm 0.18 in4.6 mm
09:15 AM 40.6°F4.8°C 37.4°F3.0°C 89% Calm Calm -- 29.65 in1004.1 mb 0.00 in0.0 mm 0.00 in0.0 mm 0.18 in4.6 mm
09:20 AM 40.6°F4.8°C 37.4°F3.0°C 89% Calm Calm -- 29.65 in1004.1 mb 0.00 in0.0 mm 0.00 in0.0 mm 0.18 in4.6 mm
09:25 AM 40.8°F4.9°C 37.4°F3.0°C 89% Calm Calm -- 29.65 in1004.1 mb 0.00 in0.0 mm 0.00 in0.0 mm 0.18 in4.6 mm
09:30 AM 40.8°F4.9°C 37.4°F3.0°C 89% 0.1 mph E0.2 kmh E 0.9 mph1.4 kmh 29.65 in1004.1 mb 0.00 in0.0 mm 0.00 in0.0 mm 0.18 in4.6 mm
09:35 AM 41.0°F5.0°C 37.4°F3.0°C 89% 0.1 mph E0.2 kmh E 0.9 mph1.4 kmh 29.65 in1004.1 mb 0.00 in0.0 mm 0.00 in0.0 mm 0.18 in4.6 mm
09:40 AM 41.0°F5.0°C 37.4°F3.0°C 89% Calm Calm -- 29.65 in1004.1 mb 0.00 in0.0 mm 0.00 in0.0 mm 0.18 in4.6 mm
09:45 AM 41.0°F5.0°C 37.4°F3.0°C 89% Calm Calm -- 29.65 in1004.1 mb 0.00 in0.0 mm 0.00 in0.0 mm 0.18 in4.6 mm
09:50 AM 41.2°F5.1°C 37.4°F3.0°C 89% Calm Calm -- 29.65 in1004.1 mb 0.00 in0.0 mm 0.00 in0.0 mm 0.18 in4.6 mm
09:55 AM 41.2°F5.1°C 37.4°F3.0°C 89% Calm Calm -- 29.65 in1004.1 mb 0.00 in0.0 mm 0.00 in0.0 mm 0.18 in4.6 mm
10:00 AM 41.2°F5.1°C 37.4°F3.0°C 89% Calm Calm -- 29.65 in1004.1 mb 0.00 in0.0 mm 0.00 in0.0 mm 0.18 in4.6 mm
10:05 AM 41.4°F5.2°C 39.2°F4.0°C 89% Calm Calm -- 29.65 in1004.1 mb 0.00 in0.0 mm 0.00 in0.0 mm 0.18 in4.6 mm
10:10 AM 41.4°F5.2°C 39.2°F4.0°C 89% Calm Calm -- 29.65 in1004.1 mb 0.00 in0.0 mm 0.00 in0.0 mm 0.18 in4.6 mm
10:15 AM 41.4°F5.2°C 39.2°F4.0°C 89% 0.4 mph E0.6 kmh E 1.1 mph1.8 kmh 29.65 in1004.1 mb 0.00 in0.0 mm 0.00 in0.0 mm 0.18 in4.6 mm
10:20 AM 41.4°F5.2°C 39.2°F4.0°C 89% 0.6 mph E1.0 kmh E 1.1 mph1.8 kmh 29.65 in1004.1 mb 0.00 in0.0 mm 0.00 in0.0 mm 0.18 in4.6 mm
10:25 AM 41.5°F5.3°C 39.2°F4.0°C 89% 0.4 mph ENE0.6 kmh ENE 1.1 mph1.8 kmh 29.65 in1004.1 mb 0.00 in0.0 mm 0.00 in0.0 mm 0.18 in4.6 mm
10:30 AM 41.5°F5.3°C 39.2°F4.0°C 89% 0.1 mph ENE0.2 kmh ENE 0.9 mph1.4 kmh 29.65 in1004.1 mb 0.00 in0.0 mm 0.00 in0.0 mm 0.18 in4.6 mm
10:35 AM 41.5°F5.3°C 39.2°F4.0°C 89% Calm Calm -- 29.65 in1004.1 mb 0.00 in0.0 mm 0.00 in0.0 mm 0.18 in4.6 mm
10:40 AM 41.5°F5.3°C 39.2°F4.0°C 89% Calm Calm -- 29.65 in1004.1 mb 0.00 in0.0 mm 0.00 in0.0 mm 0.18 in4.6 mm
10:45 AM 41.5°F5.3°C 39.2°F4.0°C 89% Calm Calm -- 29.65 in1004.1 mb 0.00 in0.0 mm 0.00 in0.0 mm 0.18 in4.6 mm
10:50 AM 41.5°F5.3°C 39.2°F4.0°C 89% 0.1 mph WNW0.2 kmh WNW 0.9 mph1.4 kmh 29.65 in1004.1 mb 0.00 in0.0 mm 0.00 in0.0 mm 0.18 in4.6 mm
10:55 AM 41.7°F5.4°C 39.2°F4.0°C 89% 0.1 mph WNW0.2 kmh WNW 0.9 mph1.4 kmh 29.65 in1004.1 mb 0.00 in0.0 mm 0.00 in0.0 mm 0.18 in4.6 mm
11:00 AM 41.7°F5.4°C 39.2°F4.0°C 89% Calm Calm -- 29.65 in1004.1 mb 0.00 in0.0 mm 0.00 in0.0 mm 0.18 in4.6 mm
11:05 AM 41.7°F5.4°C 39.2°F4.0°C 89% Calm Calm -- 29.68 in1005.1 mb 0.00 in0.0 mm 0.00 in0.0 mm 0.18 in4.6 mm
11:10 AM 41.7°F5.4°C 39.2°F4.0°C 89% Calm Calm -- 29.68 in1005.1 mb 0.00 in0.0 mm 0.00 in0.0 mm 0.18 in4.6 mm
11:15 AM 41.9°F5.5°C 39.2°F4.0°C 89% Calm Calm -- 29.68 in1005.1 mb 0.00 in0.0 mm 0.00 in0.0 mm 0.18 in4.6 mm
11:20 AM 41.9°F5.5°C 39.2°F4.0°C 89% Calm Calm -- 29.65 in1004.1 mb 0.00 in0.0 mm 0.00 in0.0 mm 0.18 in4.6 mm
11:25 AM 41.9°F5.5°C 39.2°F4.0°C 89% 0.1 mph NE0.2 kmh NE 0.9 mph1.4 kmh 29.65 in1004.1 mb 0.00 in0.0 mm 0.00 in0.0 mm 0.18 in4.6 mm
11:30 AM 41.9°F5.5°C 39.2°F4.0°C 89% 0.1 mph NE0.2 kmh NE 0.9 mph1.4 kmh 29.65 in1004.1 mb 0.00 in0.0 mm 0.00 in0.0 mm 0.18 in4.6 mm
11:35 AM 41.9°F5.5°C 39.2°F4.0°C 89% Calm Calm -- 29.65 in1004.1 mb 0.00 in0.0 mm 0.00 in0.0 mm 0.18 in4.6 mm
11:40 AM 41.9°F5.5°C 39.2°F4.0°C 89% Calm Calm -- 29.65 in1004.1 mb 0.00 in0.0 mm 0.00 in0.0 mm 0.18 in4.6 mm
11:45 AM 42.1°F5.6°C 39.2°F4.0°C 89% 0.1 mph NE0.2 kmh NE 0.9 mph1.4 kmh 29.65 in1004.1 mb 0.00 in0.0 mm 0.00 in0.0 mm 0.18 in4.6 mm
11:50 AM 42.1°F5.6°C 39.2°F4.0°C 89% 0.1 mph NE0.2 kmh NE 0.9 mph1.4 kmh 29.65 in1004.1 mb 0.00 in0.0 mm 0.00 in0.0 mm 0.18 in4.6 mm
11:55 AM 42.1°F5.6°C 39.2°F4.0°C 89% Calm Calm -- 29.65 in1004.1 mb 0.00 in0.0 mm 0.00 in0.0 mm 0.18 in4.6 mm
12:00 PM 42.1°F5.6°C 39.2°F4.0°C 89% Calm Calm -- 29.65 in1004.1 mb 0.00 in0.0 mm 0.00 in0.0 mm 0.18 in4.6 mm
12:05 PM 42.1°F5.6°C 39.2°F4.0°C 89% Calm Calm -- 29.68 in1005.1 mb 0.00 in0.0 mm 0.00 in0.0 mm 0.18 in4.6 mm
12:10 PM 42.3°F5.7°C 39.2°F4.0°C 89% Calm Calm -- 29.68 in1005.1 mb 0.00 in0.0 mm 0.00 in0.0 mm 0.18 in4.6 mm
12:15 PM 42.3°F5.7°C 39.2°F4.0°C 89% Calm Calm -- 29.68 in1005.1 mb 0.04 in1.0 mm 0.48 in12.2 mm 0.22 in5.6 mm
12:20 PM 42.3°F5.7°C 39.2°F4.0°C 89% Calm Calm -- 29.65 in1004.1 mb 0.04 in1.0 mm 0.00 in0.0 mm 0.22 in5.6 mm
12:25 PM 42.4°F5.8°C 39.2°F4.0°C 89% Calm Calm -- 29.65 in1004.1 mb 0.04 in1.0 mm 0.00 in0.0 mm 0.22 in5.6 mm
12:30 PM 42.4°F5.8°C 39.2°F4.0°C 89% Calm Calm -- 29.65 in1004.1 mb 0.04 in1.0 mm 0.00 in0.0 mm 0.22 in5.6 mm
12:35 PM 42.4°F5.8°C 39.2°F4.0°C 89% Calm Calm -- 29.68 in1005.1 mb 0.04 in1.0 mm 0.00 in0.0 mm 0.22 in5.6 mm
12:40 PM 42.6°F5.9°C 39.2°F4.0°C 89% Calm Calm -- 29.68 in1005.1 mb 0.04 in1.0 mm 0.00 in0.0 mm 0.22 in5.6 mm
12:45 PM 42.6°F5.9°C 39.2°F4.0°C 89% Calm Calm -- 29.68 in1005.1 mb 0.04 in1.0 mm 0.00 in0.0 mm 0.22 in5.6 mm
12:50 PM 42.6°F5.9°C 39.2°F4.0°C 89% 0.2 mph WNW0.3 kmh WNW 1.1 mph1.8 kmh 29.65 in1004.1 mb 0.04 in1.0 mm 0.00 in0.0 mm 0.22 in5.6 mm
12:55 PM 42.6°F5.9°C 39.2°F4.0°C 89% 0.4 mph WNW0.6 kmh WNW 1.1 mph1.8 kmh 29.65 in1004.1 mb 0.04 in1.0 mm 0.00 in0.0 mm 0.22 in5.6 mm
01:00 PM 42.6°F5.9°C 39.2°F4.0°C 89% 0.2 mph WNW0.3 kmh WNW 0.9 mph1.4 kmh 29.65 in1004.1 mb 0.04 in1.0 mm 0.00 in0.0 mm 0.22 in5.6 mm
01:05 PM 42.6°F5.9°C 39.2°F4.0°C 89% 0.2 mph NW0.3 kmh NW 0.9 mph1.4 kmh 29.65 in1004.1 mb 0.04 in1.0 mm 0.00 in0.0 mm 0.22 in5.6 mm
01:10 PM 42.6°F5.9°C 39.2°F4.0°C 89% 0.1 mph NNW0.2 kmh NNW 0.9 mph1.4 kmh 29.65 in1004.1 mb 0.04 in1.0 mm 0.00 in0.0 mm 0.22 in5.6 mm
01:15 PM 42.6°F5.9°C 39.2°F4.0°C 89% Calm Calm -- 29.65 in1004.1 mb 0.00 in0.0 mm 0.00 in0.0 mm 0.22 in5.6 mm
01:20 PM 42.6°F5.9°C 39.2°F4.0°C 89% Calm Calm -- 29.68 in1005.1 mb 0.00 in0.0 mm 0.00 in0.0 mm 0.22 in5.6 mm
01:25 PM 42.6°F5.9°C 39.2°F4.0°C 89% Calm Calm -- 29.68 in1005.1 mb 0.00 in0.0 mm 0.00 in0.0 mm 0.22 in5.6 mm
01:30 PM 42.8°F6.0°C 41.0°F5.0°C 89% Calm Calm -- 29.68 in1005.1 mb 0.00 in0.0 mm 0.00 in0.0 mm 0.22 in5.6 mm
01:35 PM 42.8°F6.0°C 41.0°F5.0°C 89% Calm Calm -- 29.65 in1004.1 mb 0.00 in0.0 mm 0.00 in0.0 mm 0.22 in5.6 mm
01:40 PM 42.6°F5.9°C 39.2°F4.0°C 89% 0.4 mph WSW0.6 kmh WSW 1.3 mph2.1 kmh 29.65 in1004.1 mb 0.00 in0.0 mm 0.00 in0.0 mm 0.22 in5.6 mm
01:45 PM 42.6°F5.9°C 39.2°F4.0°C 89% 1.0 mph WSW1.6 kmh WSW 1.3 mph2.1 kmh 29.65 in1004.1 mb 0.00 in0.0 mm 0.00 in0.0 mm 0.22 in5.6 mm
01:50 PM 42.4°F5.8°C 39.2°F4.0°C 89% 1.1 mph WSW1.8 kmh WSW 1.6 mph2.6 kmh 29.68 in1005.1 mb 0.00 in0.0 mm 0.00 in0.0 mm 0.22 in5.6 mm
01:55 PM 42.6°F5.9°C 39.2°F4.0°C 89% 1.1 mph WSW1.8 kmh WSW 1.6 mph2.6 kmh 29.68 in1005.1 mb 0.00 in0.0 mm 0.00 in0.0 mm 0.22 in5.6 mm
02:00 PM 42.6°F5.9°C 39.2°F4.0°C 89% 0.9 mph WSW1.4 kmh WSW 1.3 mph2.1 kmh 29.68 in1005.1 mb 0.00 in0.0 mm 0.00 in0.0 mm 0.22 in5.6 mm
02:05 PM 42.6°F5.9°C 39.2°F4.0°C 89% 0.5 mph W0.8 kmh W 1.3 mph2.1 kmh 29.68 in1005.1 mb 0.00 in0.0 mm 0.00 in0.0 mm 0.22 in5.6 mm
02:10 PM 42.6°F5.9°C 39.2°F4.0°C 89% 0.1 mph NE0.2 kmh NE 0.9 mph1.4 kmh 29.68 in1005.1 mb 0.00 in0.0 mm 0.00 in0.0 mm 0.22 in5.6 mm
02:15 PM 42.6°F5.9°C 39.2°F4.0°C 89% 0.3 mph NE0.5 kmh NE 1.1 mph1.8 kmh 29.68 in1005.1 mb 0.00 in0.0 mm 0.00 in0.0 mm 0.22 in5.6 mm
02:20 PM 42.8°F6.0°C 41.0°F5.0°C 89% 0.6 mph NE1.0 kmh NE 1.1 mph1.8 kmh 29.68 in1005.1 mb 0.00 in0.0 mm 0.00 in0.0 mm 0.22 in5.6 mm
02:25 PM 42.8°F6.0°C 41.0°F5.0°C 89% 0.3 mph NE0.5 kmh NE 1.1 mph1.8 kmh 29.68 in1005.1 mb 0.00 in0.0 mm 0.00 in0.0 mm 0.22 in5.6 mm
02:30 PM 42.8°F6.0°C 41.0°F5.0°C 89% 0.4 mph W0.6 kmh W 1.6 mph2.6 kmh 29.68 in1005.1 mb 0.00 in0.0 mm 0.00 in0.0 mm 0.22 in5.6 mm
02:35 PM 42.6°F5.9°C 39.2°F4.0°C 89% 0.8 mph W1.3 kmh W 1.6 mph2.6 kmh 29.68 in1005.1 mb 0.00 in0.0 mm 0.00 in0.0 mm 0.22 in5.6 mm
02:40 PM 42.8°F6.0°C 41.0°F5.0°C 89% 0.5 mph WNW0.8 kmh WNW 1.1 mph1.8 kmh 29.68 in1005.1 mb 0.00 in0.0 mm 0.00 in0.0 mm 0.22 in5.6 mm
02:45 PM 42.8°F6.0°C 41.0°F5.0°C 89% 0.6 mph NE1.0 kmh NE 1.3 mph2.1 kmh 29.68 in1005.1 mb 0.00 in0.0 mm 0.00 in0.0 mm 0.22 in5.6 mm
02:50 PM 43.0°F6.1°C 41.0°F5.0°C 89% 1.1 mph ENE1.8 kmh ENE 2.2 mph3.5 kmh 29.68 in1005.1 mb 0.00 in0.0 mm 0.00 in0.0 mm 0.22 in5.6 mm
02:55 PM 43.0°F6.1°C 41.0°F5.0°C 89% 1.4 mph ENE2.3 kmh ENE 2.5 mph4.0 kmh 29.68 in1005.1 mb 0.00 in0.0 mm 0.00 in0.0 mm 0.22 in5.6 mm
03:00 PM 43.0°F6.1°C 41.0°F5.0°C 89% 1.5 mph E2.4 kmh E 2.5 mph4.0 kmh 29.68 in1005.1 mb 0.00 in0.0 mm 0.00 in0.0 mm 0.22 in5.6 mm
03:05 PM 42.8°F6.0°C 41.0°F5.0°C 89% 2.0 mph WSW3.2 kmh WSW 3.1 mph5.0 kmh 29.68 in1005.1 mb 0.00 in0.0 mm 0.00 in0.0 mm 0.22 in5.6 mm
03:10 PM 42.8°F6.0°C 41.0°F5.0°C 89% 2.0 mph WSW3.2 kmh WSW 3.1 mph5.0 kmh 29.68 in1005.1 mb 0.00 in0.0 mm 0.00 in0.0 mm 0.22 in5.6 mm
03:15 PM 42.8°F6.0°C 41.0°F5.0°C 89% 1.4 mph WSW2.3 kmh WSW 2.7 mph4.3 kmh 29.68 in1005.1 mb 0.00 in0.0 mm 0.00 in0.0 mm 0.22 in5.6 mm
03:20 PM 42.6°F5.9°C 39.2°F4.0°C 89% 1.6 mph WSW2.6 kmh WSW 2.5 mph4.0 kmh 29.68 in1005.1 mb 0.00 in0.0 mm 0.00 in0.0 mm 0.22 in5.6 mm
03:25 PM 42.6°F5.9°C 39.2°F4.0°C 89% 1.4 mph WSW2.3 kmh WSW 2.0 mph3.2 kmh 29.68 in1005.1 mb 0.00 in0.0 mm 0.00 in0.0 mm 0.22 in5.6 mm
03:30 PM 42.6°F5.9°C 39.2°F4.0°C 89% 0.9 mph WSW1.4 kmh WSW 2.0 mph3.2 kmh 29.68 in1005.1 mb 0.00 in0.0 mm 0.00 in0.0 mm 0.22 in5.6 mm
03:35 PM 42.6°F5.9°C 39.2°F4.0°C 89% 0.6 mph WSW1.0 kmh WSW 1.1 mph1.8 kmh 29.71 in1006.1 mb 0.00 in0.0 mm 0.00 in0.0 mm 0.22 in5.6 mm
03:40 PM 42.4°F5.8°C 39.2°F4.0°C 89% 0.4 mph W0.6 kmh W 1.1 mph1.8 kmh 29.71 in1006.1 mb 0.00 in0.0 mm 0.00 in0.0 mm 0.22 in5.6 mm
03:45 PM 42.4°F5.8°C 39.2°F4.0°C 89% 0.8 mph W1.3 kmh W 2.0 mph3.2 kmh 29.71 in1006.1 mb 0.00 in0.0 mm 0.00 in0.0 mm 0.22 in5.6 mm
03:50 PM 42.4°F5.8°C 39.2°F4.0°C 89% 1.7 mph WSW2.7 kmh WSW 2.7 mph4.3 kmh 29.71 in1006.1 mb 0.00 in0.0 mm 0.00 in0.0 mm 0.22 in5.6 mm
03:55 PM 42.3°F5.7°C 39.2°F4.0°C 89% 1.8 mph WSW2.9 kmh WSW 2.7 mph4.3 kmh 29.71 in1006.1 mb 0.00 in0.0 mm 0.00 in0.0 mm 0.22 in5.6 mm
04:00 PM 42.3°F5.7°C 39.2°F4.0°C 89% 1.1 mph WSW1.8 kmh WSW 2.2 mph3.5 kmh 29.71 in1006.1 mb 0.00 in0.0 mm 0.00 in0.0 mm 0.22 in5.6 mm
04:05 PM 42.3°F5.7°C 39.2°F4.0°C 89% 0.9 mph WSW1.4 kmh WSW 2.2 mph3.5 kmh 29.71 in1006.1 mb 0.00 in0.0 mm 0.00 in0.0 mm 0.22 in5.6 mm
04:10 PM 42.3°F5.7°C 39.2°F4.0°C 89% 0.6 mph W1.0 kmh W 1.1 mph1.8 kmh 29.71 in1006.1 mb 0.00 in0.0 mm 0.00 in0.0 mm 0.22 in5.6 mm
04:15 PM 42.1°F5.6°C 39.2°F4.0°C 89% 0.1 mph W0.2 kmh W 0.9 mph1.4 kmh 29.71 in1006.1 mb 0.00 in0.0 mm 0.00 in0.0 mm 0.22 in5.6 mm
04:20 PM 42.1°F5.6°C 39.2°F4.0°C 89% Calm Calm -- 29.71 in1006.1 mb 0.00 in0.0 mm 0.00 in0.0 mm 0.22 in5.6 mm
04:25 PM 42.1°F5.6°C 39.2°F4.0°C 89% Calm Calm -- 29.71 in1006.1 mb 0.00 in0.0 mm 0.00 in0.0 mm 0.22 in5.6 mm
04:30 PM 42.1°F5.6°C 39.2°F4.0°C 89% Calm Calm -- 29.71 in1006.1 mb 0.00 in0.0 mm 0.00 in0.0 mm 0.22 in5.6 mm
04:35 PM 42.1°F5.6°C 39.2°F4.0°C 89% Calm Calm -- 29.71 in1006.1 mb 0.00 in0.0 mm 0.00 in0.0 mm 0.22 in5.6 mm
04:40 PM 42.1°F5.6°C 39.2°F4.0°C 89% Calm Calm -- 29.71 in1006.1 mb 0.00 in0.0 mm 0.00 in0.0 mm 0.22 in5.6 mm
04:45 PM 41.9°F5.5°C 39.2°F4.0°C 89% Calm Calm -- 29.71 in1006.1 mb 0.00 in0.0 mm 0.00 in0.0 mm 0.22 in5.6 mm
04:50 PM 41.9°F5.5°C 39.2°F4.0°C 89% 0.3 mph W0.5 kmh W 1.1 mph1.8 kmh 29.71 in1006.1 mb 0.00 in0.0 mm 0.00 in0.0 mm 0.22 in5.6 mm
04:55 PM 41.9°F5.5°C 39.2°F4.0°C 89% 0.3 mph W0.5 kmh W 1.1 mph1.8 kmh 29.71 in1006.1 mb 0.00 in0.0 mm 0.00 in0.0 mm 0.22 in5.6 mm
05:00 PM 41.9°F5.5°C 39.2°F4.0°C 89% 0.1 mph WNW0.2 kmh WNW 0.9 mph1.4 kmh 29.71 in1006.1 mb 0.00 in0.0 mm 0.00 in0.0 mm 0.22 in5.6 mm
05:05 PM 41.9°F5.5°C 39.2°F4.0°C 89% Calm Calm -- 29.74 in1007.1 mb 0.00 in0.0 mm 0.00 in0.0 mm 0.22 in5.6 mm
05:10 PM 42.1°F5.6°C 39.2°F4.0°C 89% Calm Calm -- 29.74 in1007.1 mb 0.00 in0.0 mm 0.00 in0.0 mm 0.22 in5.6 mm
05:15 PM 42.1°F5.6°C 39.2°F4.0°C 89% 0.2 mph NW0.3 kmh NW 0.9 mph1.4 kmh 29.74 in1007.1 mb 0.00 in0.0 mm 0.00 in0.0 mm 0.22 in5.6 mm
05:20 PM 41.9°F5.5°C 39.2°F4.0°C 89% 0.2 mph NW0.3 kmh NW 0.9 mph1.4 kmh 29.74 in1007.1 mb 0.00 in0.0 mm 0.00 in0.0 mm 0.22 in5.6 mm
05:25 PM 42.1°F5.6°C 39.2°F4.0°C 89% Calm Calm -- 29.74 in1007.1 mb 0.00 in0.0 mm 0.00 in0.0 mm 0.22 in5.6 mm
05:30 PM 42.1°F5.6°C 39.2°F4.0°C 89% Calm Calm -- 29.74 in1007.1 mb 0.00 in0.0 mm 0.00 in0.0 mm 0.22 in5.6 mm
05:35 PM 41.9°F5.5°C 39.2°F4.0°C 89% Calm Calm -- 29.74 in1007.1 mb 0.00 in0.0 mm 0.00 in0.0 mm 0.22 in5.6 mm
05:40 PM 42.1°F5.6°C 39.2°F4.0°C 89% Calm Calm -- 29.74 in1007.1 mb 0.00 in0.0 mm 0.00 in0.0 mm 0.22 in5.6 mm
05:45 PM 42.3°F5.7°C 39.2°F4.0°C 89% 0.1 mph ENE0.2 kmh ENE 0.9 mph1.4 kmh 29.74 in1007.1 mb 0.00 in0.0 mm 0.00 in0.0 mm 0.22 in5.6 mm
05:50 PM 42.1°F5.6°C 39.2°F4.0°C 89% 0.5 mph E0.8 kmh E 1.6 mph2.6 kmh 29.74 in1007.1 mb 0.00 in0.0 mm 0.00 in0.0 mm 0.22 in5.6 mm
05:55 PM 42.1°F5.6°C 39.2°F4.0°C 89% 0.9 mph E1.4 kmh E 1.6 mph2.6 kmh 29.74 in1007.1 mb 0.00 in0.0 mm 0.00 in0.0 mm 0.22 in5.6 mm
06:00 PM 42.1°F5.6°C 39.2°F4.0°C 89% 0.5 mph E0.8 kmh E 1.6 mph2.6 kmh 29.74 in1007.1 mb 0.00 in0.0 mm 0.00 in0.0 mm 0.22 in5.6 mm
06:05 PM 42.1°F5.6°C 39.2°F4.0°C 89% Calm Calm -- 29.74 in1007.1 mb 0.00 in0.0 mm 0.00 in0.0 mm 0.22 in5.6 mm
06:10 PM 42.1°F5.6°C 39.2°F4.0°C 89% 0.3 mph NE0.5 kmh NE 1.3 mph2.1 kmh 29.74 in1007.1 mb 0.00 in0.0 mm 0.00 in0.0 mm 0.22 in5.6 mm
06:15 PM 42.1°F5.6°C 39.2°F4.0°C 89% 0.6 mph NE1.0 kmh NE 1.3 mph2.1 kmh 29.74 in1007.1 mb 0.00 in0.0 mm 0.00 in0.0 mm 0.22 in5.6 mm
06:20 PM 41.9°F5.5°C 39.2°F4.0°C 89% 0.4 mph NE0.6 kmh NE 0.9 mph1.4 kmh 29.74 in1007.1 mb 0.00 in0.0 mm 0.00 in0.0 mm 0.22 in5.6 mm
06:25 PM 41.7°F5.4°C 39.2°F4.0°C 89% 0.1 mph NE0.2 kmh NE 0.9 mph1.4 kmh 29.74 in1007.1 mb 0.00 in0.0 mm 0.00 in0.0 mm 0.22 in5.6 mm
06:30 PM 41.7°F5.4°C 39.2°F4.0°C 89% Calm Calm -- 29.74 in1007.1 mb 0.00 in0.0 mm 0.00 in0.0 mm 0.22 in5.6 mm
06:35 PM 41.7°F5.4°C 39.2°F4.0°C 89% 0.7 mph WSW1.1 kmh WSW 2.0 mph3.2 kmh 29.74 in1007.1 mb 0.00 in0.0 mm 0.00 in0.0 mm 0.22 in5.6 mm
06:40 PM 41.9°F5.5°C 39.2°F4.0°C 89% 0.9 mph WSW1.4 kmh WSW 2.0 mph3.2 kmh 29.74 in1007.1 mb 0.00 in0.0 mm 0.00 in0.0 mm 0.22 in5.6 mm
06:45 PM 41.9°F5.5°C 39.2°F4.0°C 89% 0.4 mph SW0.6 kmh SW 1.6 mph2.6 kmh 29.74 in1007.1 mb 0.00 in0.0 mm 0.00 in0.0 mm 0.22 in5.6 mm
06:50 PM 41.7°F5.4°C 39.2°F4.0°C 89% 0.3 mph W0.5 kmh W 1.6 mph2.6 kmh 29.74 in1007.1 mb 0.00 in0.0 mm 0.00 in0.0 mm 0.22 in5.6 mm
06:55 PM 41.7°F5.4°C 39.2°F4.0°C 89% 0.5 mph W0.8 kmh W 1.6 mph2.6 kmh 29.74 in1007.1 mb 0.00 in0.0 mm 0.00 in0.0 mm 0.22 in5.6 mm
07:00 PM 41.7°F5.4°C 39.2°F4.0°C 89% 0.4 mph WNW0.6 kmh WNW 1.6 mph2.6 kmh 29.74 in1007.1 mb 0.00 in0.0 mm 0.00 in0.0 mm 0.22 in5.6 mm
07:05 PM 41.9°F5.5°C 39.2°F4.0°C 89% 0.7 mph NW1.1 kmh NW 1.6 mph2.6 kmh 29.74 in1007.1 mb 0.00 in0.0 mm 0.00 in0.0 mm 0.22 in5.6 mm
07:10 PM 41.9°F5.5°C 39.2°F4.0°C 89% 1.0 mph NNW1.6 kmh NNW 4.9 mph7.9 kmh 29.74 in1007.1 mb 0.00 in0.0 mm 0.00 in0.0 mm 0.22 in5.6 mm
07:15 PM 42.1°F5.6°C 39.2°F4.0°C 89% 1.2 mph N1.9 kmh N 4.9 mph7.9 kmh 29.74 in1007.1 mb 0.00 in0.0 mm 0.00 in0.0 mm 0.22 in5.6 mm
07:20 PM 42.3°F5.7°C 39.2°F4.0°C 89% 1.5 mph N2.4 kmh N 2.7 mph4.3 kmh 29.77 in1008.1 mb 0.00 in0.0 mm 0.00 in0.0 mm 0.22 in5.6 mm
07:25 PM 42.3°F5.7°C 39.2°F4.0°C 89% 1.3 mph N2.1 kmh N 2.7 mph4.3 kmh 29.77 in1008.1 mb 0.00 in0.0 mm 0.00 in0.0 mm 0.22 in5.6 mm
07:30 PM 42.3°F5.7°C 39.2°F4.0°C 89% 1.9 mph N3.1 kmh N 4.3 mph6.9 kmh 29.77 in1008.1 mb 0.00 in0.0 mm 0.00 in0.0 mm 0.22 in5.6 mm
07:35 PM 42.3°F5.7°C 39.2°F4.0°C 89% 2.5 mph N4.0 kmh N 4.3 mph6.9 kmh 29.77 in1008.1 mb 0.00 in0.0 mm 0.00 in0.0 mm 0.22 in5.6 mm
07:40 PM 42.3°F5.7°C 39.2°F4.0°C 89% 2.1 mph NNW3.4 kmh NNW 4.0 mph6.4 kmh 29.77 in1008.1 mb 0.00 in0.0 mm 0.00 in0.0 mm 0.22 in5.6 mm
07:45 PM 42.4°F5.8°C 39.2°F4.0°C 89% 2.1 mph NNW3.4 kmh NNW 4.0 mph6.4 kmh 29.77 in1008.1 mb 0.00 in0.0 mm 0.00 in0.0 mm 0.22 in5.6 mm
07:50 PM 42.4°F5.8°C 39.2°F4.0°C 89% 2.6 mph N4.2 kmh N 4.7 mph7.6 kmh 29.77 in1008.1 mb 0.00 in0.0 mm 0.00 in0.0 mm 0.22 in5.6 mm
07:55 PM 42.4°F5.8°C 39.2°F4.0°C 89% 3.4 mph NNW5.5 kmh NNW 4.7 mph7.6 kmh 29.77 in1008.1 mb 0.00 in0.0 mm 0.00 in0.0 mm 0.22 in5.6 mm
08:00 PM 42.4°F5.8°C 39.2°F4.0°C 89% 2.6 mph NNW4.2 kmh NNW 4.0 mph6.4 kmh 29.77 in1008.1 mb 0.00 in0.0 mm 0.00 in0.0 mm 0.22 in5.6 mm
08:05 PM 42.4°F5.8°C 39.2°F4.0°C 89% 2.3 mph N3.7 kmh N 4.3 mph6.9 kmh 29.77 in1008.1 mb 0.00 in0.0 mm 0.00 in0.0 mm 0.22 in5.6 mm
08:10 PM 42.4°F5.8°C 39.2°F4.0°C 89% 2.0 mph N3.2 kmh N 4.3 mph6.9 kmh 29.77 in1008.1 mb 0.00 in0.0 mm 0.00 in0.0 mm 0.22 in5.6 mm
08:15 PM 42.4°F5.8°C 39.2°F4.0°C 89% 1.9 mph N3.1 kmh N 3.4 mph5.5 kmh 29.77 in1008.1 mb 0.00 in0.0 mm 0.00 in0.0 mm 0.22 in5.6 mm
08:20 PM 42.3°F5.7°C 39.2°F4.0°C 89% 1.8 mph N2.9 kmh N 3.6 mph5.8 kmh 29.77 in1008.1 mb 0.00 in0.0 mm 0.00 in0.0 mm 0.22 in5.6 mm
08:25 PM 42.4°F5.8°C 39.2°F4.0°C 89% 1.9 mph N3.1 kmh N 3.8 mph6.1 kmh 29.77 in1008.1 mb 0.00 in0.0 mm 0.00 in0.0 mm 0.22 in5.6 mm
08:30 PM 42.4°F5.8°C 39.2°F4.0°C 89% 2.3 mph N3.7 kmh N 4.0 mph6.4 kmh 29.77 in1008.1 mb 0.00 in0.0 mm 0.00 in0.0 mm 0.22 in5.6 mm
08:35 PM 42.4°F5.8°C 39.2°F4.0°C 89% 1.9 mph N3.1 kmh N 4.0 mph6.4 kmh 29.80 in1009.1 mb 0.00 in0.0 mm 0.00 in0.0 mm 0.22 in5.6 mm
08:40 PM 42.4°F5.8°C 39.2°F4.0°C 89% 2.0 mph NNW3.2 kmh NNW 4.0 mph6.4 kmh 29.80 in1009.1 mb 0.00 in0.0 mm 0.00 in0.0 mm 0.22 in5.6 mm
08:45 PM 42.4°F5.8°C 39.2°F4.0°C 89% 2.1 mph NW3.4 kmh NW 4.0 mph6.4 kmh 29.80 in1009.1 mb 0.00 in0.0 mm 0.00 in0.0 mm 0.22 in5.6 mm
08:50 PM 42.4°F5.8°C 39.2°F4.0°C 89% 1.6 mph NNW2.6 kmh NNW 4.0 mph6.4 kmh 29.80 in1009.1 mb 0.00 in0.0 mm 0.00 in0.0 mm 0.22 in5.6 mm
08:55 PM 42.4°F5.8°C 39.2°F4.0°C 89% 1.5 mph N2.4 kmh N 3.4 mph5.5 kmh 29.80 in1009.1 mb 0.00 in0.0 mm 0.00 in0.0 mm 0.22 in5.6 mm
09:00 PM 42.4°F5.8°C 39.2°F4.0°C 89% 1.7 mph N2.7 kmh N 3.4 mph5.5 kmh 29.80 in1009.1 mb 0.00 in0.0 mm 0.00 in0.0 mm 0.22 in5.6 mm
09:05 PM 42.4°F5.8°C 39.2°F4.0°C 90% 1.7 mph N2.7 kmh N 3.8 mph6.1 kmh 29.80 in1009.1 mb 0.00 in0.0 mm 0.00 in0.0 mm 0.22 in5.6 mm
09:10 PM 42.6°F5.9°C 39.2°F4.0°C 89% 2.3 mph N3.7 kmh N 4.7 mph7.6 kmh 29.80 in1009.1 mb 0.00 in0.0 mm 0.00 in0.0 mm 0.22 in5.6 mm
09:15 PM 42.6°F5.9°C 39.2°F4.0°C 90% 2.6 mph N4.2 kmh N 4.7 mph7.6 kmh 29.80 in1009.1 mb 0.00 in0.0 mm 0.00 in0.0 mm 0.22 in5.6 mm
09:20 PM 42.6°F5.9°C 39.2°F4.0°C 89% 2.2 mph N3.5 kmh N 4.3 mph6.9 kmh 29.80 in1009.1 mb 0.00 in0.0 mm 0.00 in0.0 mm 0.22 in5.6 mm
09:25 PM 42.6°F5.9°C 39.2°F4.0°C 89% 2.5 mph N4.0 kmh N 7.4 mph11.9 kmh 29.80 in1009.1 mb 0.00 in0.0 mm 0.00 in0.0 mm 0.22 in5.6 mm
09:30 PM 42.6°F5.9°C 39.2°F4.0°C 89% 2.3 mph N3.7 kmh N 7.4 mph11.9 kmh 29.80 in1009.1 mb 0.00 in0.0 mm 0.00 in0.0 mm 0.22 in5.6 mm
09:35 PM 42.6°F5.9°C 39.2°F4.0°C 89% 1.9 mph N3.1 kmh N 3.4 mph5.5 kmh 29.80 in1009.1 mb 0.00 in0.0 mm 0.00 in0.0 mm 0.22 in5.6 mm
09:40 PM 42.6°F5.9°C 39.2°F4.0°C 89% 2.2 mph N3.5 kmh N 3.4 mph5.5 kmh 29.80 in1009.1 mb 0.00 in0.0 mm 0.00 in0.0 mm 0.22 in5.6 mm
09:45 PM 42.6°F5.9°C 39.2°F4.0°C 89% 2.7 mph N4.3 kmh N 3.6 mph5.8 kmh 29.80 in1009.1 mb 0.00 in0.0 mm 0.00 in0.0 mm 0.22 in5.6 mm
09:50 PM 42.8°F6.0°C 41.0°F5.0°C 90% 3.5 mph N5.6 kmh N 5.6 mph9.0 kmh 29.80 in1009.1 mb 0.00 in0.0 mm 0.00 in0.0 mm 0.22 in5.6 mm
09:55 PM 42.8°F6.0°C 41.0°F5.0°C 90% 3.5 mph N5.6 kmh N 5.6 mph9.0 kmh 29.80 in1009.1 mb 0.00 in0.0 mm 0.00 in0.0 mm 0.22 in5.6 mm
10:00 PM 42.6°F5.9°C 39.2°F4.0°C 90% 2.6 mph N4.2 kmh N 5.6 mph9.0 kmh 29.80 in1009.1 mb 0.00 in0.0 mm 0.00 in0.0 mm 0.22 in5.6 mm
10:05 PM 42.8°F6.0°C 41.0°F5.0°C 90% 2.8 mph NNE4.5 kmh NNE 5.8 mph9.3 kmh 29.80 in1009.1 mb 0.00 in0.0 mm 0.00 in0.0 mm 0.22 in5.6 mm
10:10 PM 42.8°F6.0°C 41.0°F5.0°C 90% 3.5 mph NNE5.6 kmh NNE 8.1 mph13.0 kmh 29.80 in1009.1 mb 0.00 in0.0 mm 0.00 in0.0 mm 0.22 in5.6 mm
10:15 PM 42.8°F6.0°C 41.0°F5.0°C 90% 3.4 mph N5.5 kmh N 8.1 mph13.0 kmh 29.80 in1009.1 mb 0.00 in0.0 mm 0.00 in0.0 mm 0.22 in5.6 mm
10:20 PM 42.8°F6.0°C 41.0°F5.0°C 90% 3.5 mph N5.6 kmh N 10.5 mph16.9 kmh 29.83 in1010.2 mb 0.00 in0.0 mm 0.00 in0.0 mm 0.22 in5.6 mm
10:25 PM 42.8°F6.0°C 41.0°F5.0°C 90% 4.0 mph N6.4 kmh N 10.5 mph16.9 kmh 29.83 in1010.2 mb 0.00 in0.0 mm 0.00 in0.0 mm 0.22 in5.6 mm
10:30 PM 42.8°F6.0°C 41.0°F5.0°C 90% 3.5 mph N5.6 kmh N 5.8 mph9.3 kmh 29.83 in1010.2 mb 0.00 in0.0 mm 0.00 in0.0 mm 0.22 in5.6 mm
10:35 PM 42.8°F6.0°C 41.0°F5.0°C 90% 3.3 mph N5.3 kmh N 5.8 mph9.3 kmh 29.83 in1010.2 mb 0.00 in0.0 mm 0.00 in0.0 mm 0.22 in5.6 mm
10:40 PM 43.0°F6.1°C 41.0°F5.0°C 89% 4.3 mph N6.9 kmh N 7.4 mph11.9 kmh 29.83 in1010.2 mb 0.00 in0.0 mm 0.00 in0.0 mm 0.22 in5.6 mm
10:45 PM 43.0°F6.1°C 41.0°F5.0°C 89% 5.4 mph N8.7 kmh N 8.1 mph13.0 kmh 29.83 in1010.2 mb 0.00 in0.0 mm 0.00 in0.0 mm 0.22 in5.6 mm
10:50 PM 43.0°F6.1°C 41.0°F5.0°C 89% 5.6 mph N9.0 kmh N 8.1 mph13.0 kmh 29.83 in1010.2 mb 0.00 in0.0 mm 0.00 in0.0 mm 0.22 in5.6 mm
10:55 PM 43.0°F6.1°C 41.0°F5.0°C 89% 4.9 mph N7.9 kmh N 7.8 mph12.6 kmh 29.83 in1010.2 mb 0.00 in0.0 mm 0.00 in0.0 mm 0.22 in5.6 mm
11:00 PM 42.8°F6.0°C 41.0°F5.0°C 89% 4.6 mph N7.4 kmh N 7.4 mph11.9 kmh 29.83 in1010.2 mb 0.00 in0.0 mm 0.00 in0.0 mm 0.22 in5.6 mm
11:05 PM 42.8°F6.0°C 41.0°F5.0°C 89% 4.8 mph NNE7.7 kmh NNE 7.4 mph11.9 kmh 29.83 in1010.2 mb 0.00 in0.0 mm 0.00 in0.0 mm 0.22 in5.6 mm
11:10 PM 42.8°F6.0°C 41.0°F5.0°C 89% 4.9 mph N7.9 kmh N 6.3 mph10.1 kmh 29.83 in1010.2 mb 0.00 in0.0 mm 0.00 in0.0 mm 0.22 in5.6 mm
11:15 PM 42.8°F6.0°C 41.0°F5.0°C 89% 5.4 mph N8.7 kmh N 7.6 mph12.2 kmh 29.83 in1010.2 mb 0.00 in0.0 mm 0.00 in0.0 mm 0.22 in5.6 mm
11:20 PM 42.8°F6.0°C 41.0°F5.0°C 89% 5.5 mph N8.9 kmh N 10.1 mph16.3 kmh 29.83 in1010.2 mb 0.00 in0.0 mm 0.00 in0.0 mm 0.22 in5.6 mm
11:25 PM 42.8°F6.0°C 41.0°F5.0°C 89% 5.5 mph N8.9 kmh N 10.1 mph16.3 kmh 29.83 in1010.2 mb 0.00 in0.0 mm 0.00 in0.0 mm 0.22 in5.6 mm
11:30 PM 42.8°F6.0°C 41.0°F5.0°C 89% 5.4 mph N8.7 kmh N 7.2 mph11.6 kmh 29.83 in1010.2 mb 0.00 in0.0 mm 0.00 in0.0 mm 0.22 in5.6 mm
11:35 PM 42.6°F5.9°C 39.2°F4.0°C 89% 5.1 mph N8.2 kmh N 8.1 mph13.0 kmh 29.83 in1010.2 mb 0.00 in0.0 mm 0.00 in0.0 mm 0.22 in5.6 mm
11:40 PM 42.6°F5.9°C 39.2°F4.0°C 89% 4.2 mph NNE6.8 kmh NNE 8.1 mph13.0 kmh 29.83 in1010.2 mb 0.00 in0.0 mm 0.00 in0.0 mm 0.22 in5.6 mm
11:45 PM 42.6°F5.9°C 39.2°F4.0°C 89% 4.3 mph N6.9 kmh N 6.3 mph10.1 kmh 29.83 in1010.2 mb 0.00 in0.0 mm 0.00 in0.0 mm 0.22 in5.6 mm
11:50 PM 42.6°F5.9°C 39.2°F4.0°C 89% 5.1 mph N8.2 kmh N 7.4 mph11.9 kmh 29.86 in1011.2 mb 0.00 in0.0 mm 0.00 in0.0 mm 0.22 in5.6 mm
11:55 PM 42.6°F5.9°C 39.2°F4.0°C 89% 5.6 mph N9.0 kmh N 7.8 mph12.6 kmh 29.86 in1011.2 mb 0.00 in0.0 mm 0.00 in0.0 mm 0.22 in5.6 mm